Time;durP1;ratioP1;P1;durP2;ratioP2;P2;SDS_P1;SDS_P2;PMS_P1;PMS_P2;Temp;Humidity;BMP_temperature;BMP_pressure;BME280_temperature;BME280_humidity;BME280_pressure;Samples;Min_cycle;Max_cycle;Signal;HPM_P1;HPM_P2
2022/08/01 00:01:41;;;;;;;58.77;3.43;;;;;;;;;;5112317;28;20458;-66
2022/08/01 00:04:09;;;;;;;59.10;2.83;;;;;;;;;;5112661;28;20456;-66
2022/08/01 00:06:37;;;;;;;59.10;2.90;;;;;;;;;;5112317;28;20910;-66
2022/08/01 00:09:04;;;;;;;58.83;3.27;;;;;;;;;;5111791;28;20952;-66
2022/08/01 00:11:31;;;;;;;63.90;5.07;;;;;;;;;;5107898;28;20489;-66
2022/08/01 00:13:58;;;;;;;66.83;5.33;;;;;;;;;;5092193;28;20447;-66
2022/08/01 00:16:25;;;;;;;66.37;5.40;;;;;;;;;;5092128;28;20830;-66
2022/08/01 00:18:53;;;;;;;62.07;3.57;;;;;;;;;;5091657;28;20450;-66
2022/08/01 00:21:20;;;;;;;60.23;4.20;;;;;;;;;;5091863;28;20991;-66
2022/08/01 00:23:49;;;;;;;59.70;4.00;;;;;;;;;;5091915;28;20489;-66
2022/08/01 00:26:16;;;;;;;59.07;3.60;;;;;;;;;;5091949;28;20443;-66
2022/08/01 00:28:44;;;;;;;58.60;3.13;;;;;;;;;;5095053;28;20537;-66
2022/08/01 00:31:11;;;;;;;59.63;3.77;;;;;;;;;;5095170;28;20492;-66
2022/08/01 00:33:38;;;;;;;61.07;3.57;;;;;;;;;;5095770;28;20447;-66
2022/08/01 00:36:05;;;;;;;64.50;4.00;;;;;;;;;;5095407;28;20446;-66
2022/08/01 00:38:32;;;;;;;59.40;3.30;;;;;;;;;;5095177;28;20447;-66
2022/08/01 00:41:01;;;;;;;59.00;3.43;;;;;;;;;;5095330;28;20466;-66
2022/08/01 00:43:28;;;;;;;58.97;3.10;;;;;;;;;;5094871;28;20453;-67
2022/08/01 00:45:55;;;;;;;59.07;3.53;;;;;;;;;;5095676;28;20456;-67
2022/08/01 00:48:22;;;;;;;60.70;3.30;;;;;;;;;;5095271;28;20472;-67
2022/08/01 00:50:50;;;;;;;60.50;3.17;;;;;;;;;;5094521;28;20530;-67
2022/08/01 00:53:17;;;;;;;59.13;3.57;;;;;;;;;;5095180;28;20486;-67
2022/08/01 00:55:44;;;;;;;58.80;3.00;;;;;;;;;;5095060;28;20446;-67
2022/08/01 00:58:13;;;;;;;58.50;2.93;;;;;;;;;;5095021;28;20444;-66
2022/08/01 01:00:40;;;;;;;58.63;3.30;;;;;;;;;;5094757;28;20830;-66
2022/08/01 01:03:07;;;;;;;58.90;3.27;;;;;;;;;;5095150;28;20445;-66
2022/08/01 01:05:37;;;;;;;59.23;3.43;;;;;;;;;;5094694;28;20543;-66
2022/08/01 01:08:06;;;;;;;59.07;3.40;;;;;;;;;;5095012;28;20473;-66
2022/08/01 01:10:35;;;;;;;62.43;3.83;;;;;;;;;;5094787;28;20468;-66
2022/08/01 01:13:06;;;;;;;59.53;3.33;;;;;;;;;;5094710;28;20474;-66
2022/08/01 01:15:39;;;;;;;59.17;3.10;;;;;;;;;;5094302;28;20447;-66
2022/08/01 01:18:09;;;;;;;58.90;3.40;;;;;;;;;;5094620;28;20446;-66
2022/08/01 01:20:38;;;;;;;59.30;3.53;;;;;;;;;;5104957;28;20476;-66
2022/08/01 01:23:25;;;;;;;59.10;3.40;;;;;;;;;;5114875;28;20488;-66
2022/08/01 01:26:01;;;;;;;58.63;3.00;;;;;;;;;;5114905;28;20432;-66
2022/08/01 01:28:31;;;;;;;59.10;3.30;;;;;;;;;;5115059;28;20894;-66
2022/08/01 01:31:00;;;;;;;59.40;3.70;;;;;;;;;;5114953;28;20461;-66
2022/08/01 01:33:31;;;;;;;59.13;3.57;;;;;;;;;;5114525;28;21089;-66
2022/08/01 01:36:00;;;;;;;59.07;3.33;;;;;;;;;;5115146;28;20451;-66
2022/08/01 01:38:29;;;;;;;58.77;3.10;;;;;;;;;;5114507;28;20456;-66
2022/08/01 01:40:57;;;;;;;58.87;2.90;;;;;;;;;;5114460;28;21050;-66
2022/08/01 01:43:25;;;;;;;59.87;3.57;;;;;;;;;;5114884;28;20450;-66
2022/08/01 01:45:52;;;;;;;59.13;3.87;;;;;;;;;;5114588;28;20445;-66
2022/08/01 01:48:21;;;;;;;60.80;3.23;;;;;;;;;;5105496;28;20461;-66
2022/08/01 01:50:49;;;;;;;60.30;3.53;;;;;;;;;;5093578;28;20671;-66
2022/08/01 01:53:17;;;;;;;59.47;3.10;;;;;;;;;;5094027;28;20482;-66
2022/08/01 01:55:46;;;;;;;58.37;3.07;;;;;;;;;;5094274;28;20454;-66
2022/08/01 01:58:14;;;;;;;59.37;3.00;;;;;;;;;;5094090;28;20636;-66
2022/08/01 02:00:42;;;;;;;60.17;4.23;;;;;;;;;;5093965;28;20472;-66
2022/08/01 02:03:11;;;;;;;59.10;3.50;;;;;;;;;;5093712;28;20453;-66
2022/08/01 02:05:40;;;;;;;59.17;3.23;;;;;;;;;;5093937;28;20474;-66
2022/08/01 02:08:08;;;;;;;58.73;3.10;;;;;;;;;;5094108;28;20446;-66
2022/08/01 02:10:36;;;;;;;59.10;3.73;;;;;;;;;;5093648;28;20510;-66
2022/08/01 02:13:06;;;;;;;59.40;3.60;;;;;;;;;;5093574;28;20575;-66
2022/08/01 02:15:34;;;;;;;60.67;3.60;;;;;;;;;;5093625;28;21038;-66
2022/08/01 02:18:02;;;;;;;60.10;4.00;;;;;;;;;;5093829;28;20455;-66
2022/08/01 02:20:30;;;;;;;59.47;3.40;;;;;;;;;;5092781;28;20536;-66
2022/08/01 02:23:02;;;;;;;61.77;3.90;;;;;;;;;;5093717;28;20789;-66
2022/08/01 02:25:33;;;;;;;59.20;3.27;;;;;;;;;;5093661;28;20450;-66
2022/08/01 02:28:01;;;;;;;59.00;3.13;;;;;;;;;;5093708;28;20449;-66
2022/08/01 02:30:31;;;;;;;59.10;3.10;;;;;;;;;;5093625;28;20474;-66
2022/08/01 02:33:01;;;;;;;59.40;3.80;;;;;;;;;;5093742;28;20857;-66
2022/08/01 02:35:30;;;;;;;59.60;3.37;;;;;;;;;;5093618;28;20450;-66
2022/08/01 02:37:58;;;;;;;59.30;3.50;;;;;;;;;;5093397;28;20534;-66
2022/08/01 02:40:28;;;;;;;59.00;3.80;;;;;;;;;;5093305;28;20466;-66
2022/08/01 02:42:56;;;;;;;59.30;3.83;;;;;;;;;;5093645;28;20440;-66
2022/08/01 02:45:26;;;;;;;60.43;3.97;;;;;;;;;;5093755;28;20442;-66
2022/08/01 02:47:55;;;;;;;59.17;3.23;;;;;;;;;;5093401;28;20476;-66
2022/08/01 02:50:23;;;;;;;58.80;3.30;;;;;;;;;;5092613;28;21028;-66
2022/08/01 02:52:52;;;;;;;59.30;3.60;;;;;;;;;;5093189;28;20486;-66
2022/08/01 02:55:22;;;;;;;59.50;3.63;;;;;;;;;;5093037;28;20451;-66
2022/08/01 02:57:51;;;;;;;59.50;3.30;;;;;;;;;;5093534;28;20447;-66
2022/08/01 03:00:19;;;;;;;59.27;3.50;;;;;;;;;;5092981;28;20454;-66
2022/08/01 03:02:48;;;;;;;59.10;3.43;;;;;;;;;;5093211;28;20445;-66
2022/08/01 03:05:15;;;;;;;58.43;3.10;;;;;;;;;;5093178;28;20445;-66
2022/08/01 03:07:43;;;;;;;59.97;3.80;;;;;;;;;;5092880;28;20449;-66
2022/08/01 03:10:11;;;;;;;59.27;3.80;;;;;;;;;;5092944;28;20555;-66
2022/08/01 03:12:39;;;;;;;59.03;3.47;;;;;;;;;;5093019;28;20480;-66
2022/08/01 03:15:10;;;;;;;59.70;3.37;;;;;;;;;;5092726;28;20438;-66
2022/08/01 03:17:38;;;;;;;59.77;3.27;;;;;;;;;;5092783;28;20449;-66
2022/08/01 03:20:06;;;;;;;59.07;3.77;;;;;;;;;;5092315;28;20470;-66
2022/08/01 03:22:34;;;;;;;59.00;3.47;;;;;;;;;;5092493;28;20450;-66
2022/08/01 03:25:01;;;;;;;58.50;2.93;;;;;;;;;;5092518;28;20961;-66
2022/08/01 03:27:28;;;;;;;58.57;3.20;;;;;;;;;;5092735;28;20438;-66
2022/08/01 03:29:57;;;;;;;59.20;3.33;;;;;;;;;;5092212;28;20443;-66
2022/08/01 03:32:26;;;;;;;59.17;3.60;;;;;;;;;;5092343;28;20880;-66
2022/08/01 03:34:53;;;;;;;59.43;3.27;;;;;;;;;;5092319;28;20447;-66
2022/08/01 03:37:24;;;;;;;59.30;3.77;;;;;;;;;;5092683;28;20446;-66
2022/08/01 03:39:53;;;;;;;59.47;3.70;;;;;;;;;;5092096;28;20930;-66
2022/08/01 03:42:22;;;;;;;59.00;3.20;;;;;;;;;;5092496;28;20444;-66
2022/08/01 03:44:51;;;;;;;60.00;4.23;;;;;;;;;;5092336;28;20473;-66
2022/08/01 03:47:18;;;;;;;59.70;3.67;;;;;;;;;;5092209;28;20464;-66
2022/08/01 03:49:48;;;;;;;58.67;3.20;;;;;;;;;;5092131;28;20458;-66
2022/08/01 03:52:15;;;;;;;60.60;4.50;;;;;;;;;;5092277;28;20504;-66
2022/08/01 03:54:45;;;;;;;59.60;3.90;;;;;;;;;;5092069;28;20943;-66
2022/08/01 03:57:12;;;;;;;59.73;4.10;;;;;;;;;;5092092;28;20452;-66
2022/08/01 03:59:40;;;;;;;59.40;3.80;;;;;;;;;;5092211;28;20472;-66
2022/08/01 04:02:07;;;;;;;59.10;3.40;;;;;;;;;;5093570;28;20607;-66
2022/08/01 04:04:35;;;;;;;59.60;3.80;;;;;;;;;;5097131;28;20964;-66
2022/08/01 04:07:06;;;;;;;60.87;4.60;;;;;;;;;;5097353;28;20469;-66
2022/08/01 04:09:33;;;;;;;59.50;3.97;;;;;;;;;;5097288;28;20457;-66
2022/08/01 04:12:01;;;;;;;58.70;3.67;;;;;;;;;;5096735;28;20466;-67
2022/08/01 04:14:29;;;;;;;61.30;4.20;;;;;;;;;;5097242;28;20481;-67
2022/08/01 04:16:56;;;;;;;61.77;3.90;;;;;;;;;;5097333;28;20476;-67
2022/08/01 04:19:23;;;;;;;59.57;3.80;;;;;;;;;;5096738;28;20465;-67
2022/08/01 04:21:51;;;;;;;59.37;3.57;;;;;;;;;;5096919;28;20557;-67
2022/08/01 04:24:20;;;;;;;59.70;3.77;;;;;;;;;;5096853;28;20442;-67
2022/08/01 04:26:49;;;;;;;59.40;4.00;;;;;;;;;;5096552;28;20458;-67
2022/08/01 04:29:17;;;;;;;60.00;4.00;;;;;;;;;;5096613;28;20438;-67
2022/08/01 04:31:46;;;;;;;60.00;4.17;;;;;;;;;;5096645;28;20502;-67
2022/08/01 04:34:15;;;;;;;60.60;4.27;;;;;;;;;;5096854;28;20490;-67
2022/08/01 04:36:42;;;;;;;62.87;3.80;;;;;;;;;;5096356;28;20446;-67
2022/08/01 04:39:10;;;;;;;59.57;3.70;;;;;;;;;;5096282;28;20446;-67
2022/08/01 04:41:39;;;;;;;59.67;3.77;;;;;;;;;;5096144;28;20469;-67
2022/08/01 04:44:06;;;;;;;59.37;3.60;;;;;;;;;;5096505;28;20529;-67
2022/08/01 04:46:36;;;;;;;59.80;3.67;;;;;;;;;;5096518;28;20450;-67
2022/08/01 04:49:04;;;;;;;60.20;3.37;;;;;;;;;;5096290;28;20446;-67
2022/08/01 04:51:31;;;;;;;58.80;3.53;;;;;;;;;;5095855;28;20476;-67
2022/08/01 04:53:59;;;;;;;59.90;4.00;;;;;;;;;;5095467;28;20478;-67
2022/08/01 04:56:28;;;;;;;59.77;3.50;;;;;;;;;;5095565;28;20457;-67
2022/08/01 05:01:37;;;;;;;59.47;4.37;;;;;;;;;;5095391;28;20539;-67
2022/08/01 05:04:04;;;;;;;59.07;3.10;;;;;;;;;;5095498;28;20446;-67
2022/08/01 05:06:31;;;;;;;59.40;4.20;;;;;;;;;;5095581;28;20449;-67
2022/08/01 05:08:58;;;;;;;59.40;3.57;;;;;;;;;;5095337;28;20448;-67
2022/08/01 05:11:26;;;;;;;59.77;3.63;;;;;;;;;;5095494;28;20465;-66
2022/08/01 05:13:53;;;;;;;59.70;4.20;;;;;;;;;;5094756;28;20482;-66
2022/08/01 05:16:21;;;;;;;59.60;3.97;;;;;;;;;;5095289;28;20442;-66
2022/08/01 05:18:48;;;;;;;58.70;3.30;;;;;;;;;;5094960;28;20457;-66
2022/08/01 05:21:15;;;;;;;59.20;3.50;;;;;;;;;;5095420;28;20832;-66
2022/08/01 05:23:42;;;;;;;59.30;3.77;;;;;;;;;;5095724;28;20446;-66
2022/08/01 05:26:10;;;;;;;58.00;3.07;;;;;;;;;;5095407;28;20450;-66
2022/08/01 05:28:37;;;;;;;59.60;3.53;;;;;;;;;;5095039;28;20821;-67
2022/08/01 05:31:04;;;;;;;59.10;3.97;;;;;;;;;;5095296;28;20470;-67
2022/08/01 05:33:32;;;;;;;59.30;3.67;;;;;;;;;;5094795;28;21023;-67
2022/08/01 05:35:59;;;;;;;59.20;3.50;;;;;;;;;;5095409;28;20456;-67
2022/08/01 05:38:27;;;;;;;59.40;3.27;;;;;;;;;;5095235;28;20522;-67
2022/08/01 05:40:54;;;;;;;59.20;3.60;;;;;;;;;;5095175;28;20462;-67
2022/08/01 05:43:21;;;;;;;58.87;3.33;;;;;;;;;;5095010;28;20469;-67
2022/08/01 05:45:48;;;;;;;59.57;3.83;;;;;;;;;;5095000;28;20446;-67
2022/08/01 05:48:15;;;;;;;59.27;3.37;;;;;;;;;;5094814;28;20474;-67
2022/08/01 05:50:43;;;;;;;59.00;3.40;;;;;;;;;;5094690;28;20489;-67
2022/08/01 05:53:11;;;;;;;62.93;3.70;;;;;;;;;;5095051;28;20540;-67
2022/08/01 05:55:38;;;;;;;59.30;3.07;;;;;;;;;;5094840;28;20473;-67
2022/08/01 05:58:05;;;;;;;58.60;3.10;;;;;;;;;;5095193;28;20448;-66
2022/08/01 06:00:32;;;;;;;58.60;3.20;;;;;;;;;;5094579;28;20545;-66
2022/08/01 06:02:59;;;;;;;58.90;3.37;;;;;;;;;;5095249;28;20447;-67
2022/08/01 06:05:26;;;;;;;58.50;3.37;;;;;;;;;;5094895;28;20533;-67
2022/08/01 06:07:55;;;;;;;59.17;2.87;;;;;;;;;;5094610;28;20455;-67
2022/08/01 06:10:22;;;;;;;58.37;2.87;;;;;;;;;;5094402;28;20473;-67
2022/08/01 06:12:49;;;;;;;58.47;2.90;;;;;;;;;;5095291;28;20449;-67
2022/08/01 06:15:16;;;;;;;58.27;2.83;;;;;;;;;;5094761;28;20536;-67
2022/08/01 06:17:43;;;;;;;58.03;2.67;;;;;;;;;;5094968;28;20458;-67
2022/08/01 06:20:11;;;;;;;58.37;3.10;;;;;;;;;;5094167;28;20464;-67
2022/08/01 06:22:38;;;;;;;58.30;3.23;;;;;;;;;;5094583;28;20457;-67
2022/08/01 06:25:08;;;;;;;58.80;3.03;;;;;;;;;;5093733;28;20455;-67
2022/08/01 06:27:35;;;;;;;59.10;3.10;;;;;;;;;;5094362;28;20453;-67
2022/08/01 06:30:03;;;;;;;58.23;3.17;;;;;;;;;;5094087;28;20471;-67
2022/08/01 06:32:30;;;;;;;58.60;2.97;;;;;;;;;;5094074;28;20443;-67
2022/08/01 06:34:58;;;;;;;58.50;2.90;;;;;;;;;;5094057;28;21067;-67
2022/08/01 06:37:25;;;;;;;58.80;2.80;;;;;;;;;;5093995;28;20451;-67
2022/08/01 06:39:52;;;;;;;58.27;2.60;;;;;;;;;;5093149;28;20881;-67
2022/08/01 06:42:21;;;;;;;58.87;3.00;;;;;;;;;;5093624;28;20561;-67
2022/08/01 06:44:48;;;;;;;58.07;2.80;;;;;;;;;;5093496;28;20448;-67
2022/08/01 06:47:15;;;;;;;58.37;2.70;;;;;;;;;;5094160;28;20445;-67
2022/08/01 06:49:42;;;;;;;58.80;2.80;;;;;;;;;;5093352;28;20492;-67
2022/08/01 06:52:09;;;;;;;58.97;2.83;;;;;;;;;;5094301;28;20529;-67
2022/08/01 06:54:36;;;;;;;58.10;2.60;;;;;;;;;;5093699;28;21022;-67
2022/08/01 06:57:06;;;;;;;58.63;2.90;;;;;;;;;;5092668;28;20464;-67
2022/08/01 06:59:35;;;;;;;58.60;3.37;;;;;;;;;;5092597;28;20480;-67
2022/08/01 07:02:02;;;;;;;58.17;2.73;;;;;;;;;;5092514;28;20467;-67
2022/08/01 07:04:29;;;;;;;58.17;2.53;;;;;;;;;;5092626;28;20499;-67
2022/08/01 07:06:56;;;;;;;61.10;3.97;;;;;;;;;;5092531;28;20450;-67
2022/08/01 07:09:23;;;;;;;58.67;2.60;;;;;;;;;;5092178;28;20453;-67
2022/08/01 07:11:52;;;;;;;58.40;2.60;;;;;;;;;;5092586;28;20839;-67
2022/08/01 07:14:19;;;;;;;58.40;2.87;;;;;;;;;;5092491;28;20540;-67
2022/08/01 07:16:47;;;;;;;57.83;2.50;;;;;;;;;;5092445;28;20449;-67
2022/08/01 07:19:15;;;;;;;57.97;2.40;;;;;;;;;;5092076;28;20892;-67
2022/08/01 07:21:42;;;;;;;58.90;3.00;;;;;;;;;;5092206;28;20566;-67
2022/08/01 07:24:10;;;;;;;57.93;2.13;;;;;;;;;;5092168;28;20438;-67
2022/08/01 07:26:37;;;;;;;58.13;2.47;;;;;;;;;;5092438;28;20442;-67
2022/08/01 07:29:04;;;;;;;58.90;2.83;;;;;;;;;;5091833;28;20446;-67
2022/08/01 07:31:32;;;;;;;58.00;2.53;;;;;;;;;;5091948;28;20977;-67
2022/08/01 07:34:00;;;;;;;58.00;2.40;;;;;;;;;;5092524;28;20478;-67
2022/08/01 07:36:27;;;;;;;58.63;3.00;;;;;;;;;;5091767;28;20541;-67
2022/08/01 07:38:54;;;;;;;59.10;2.50;;;;;;;;;;5091905;28;20442;-67
2022/08/01 07:41:21;;;;;;;62.10;2.63;;;;;;;;;;5092137;28;20488;-67
2022/08/01 07:43:49;;;;;;;58.70;2.90;;;;;;;;;;5092093;28;20826;-67
2022/08/01 07:46:16;;;;;;;58.03;2.37;;;;;;;;;;5092121;28;20470;-67
2022/08/01 07:48:43;;;;;;;58.10;2.70;;;;;;;;;;5091975;28;20814;-67
2022/08/01 07:51:11;;;;;;;58.67;2.60;;;;;;;;;;5091714;28;20998;-67
2022/08/01 07:53:39;;;;;;;58.80;2.93;;;;;;;;;;5091703;28;21080;-67
2022/08/01 07:56:06;;;;;;;58.40;3.10;;;;;;;;;;5092054;28;20537;-67
2022/08/01 07:58:33;;;;;;;58.10;2.60;;;;;;;;;;5091889;28;20443;-67
2022/08/01 08:01:00;;;;;;;59.57;2.77;;;;;;;;;;5091848;28;20815;-67
2022/08/01 08:03:28;;;;;;;58.50;2.90;;;;;;;;;;5091782;28;20443;-67
2022/08/01 08:05:55;;;;;;;58.60;2.90;;;;;;;;;;5092017;28;20480;-67
2022/08/01 08:08:24;;;;;;;58.10;2.70;;;;;;;;;;5091520;28;20449;-67
2022/08/01 08:10:51;;;;;;;58.07;2.50;;;;;;;;;;5091430;28;20466;-67
2022/08/01 08:13:18;;;;;;;57.97;2.30;;;;;;;;;;5091763;28;20529;-67
2022/08/01 08:15:46;;;;;;;58.60;2.87;;;;;;;;;;5091701;28;20443;-67
2022/08/01 08:18:13;;;;;;;60.80;2.70;;;;;;;;;;5091515;28;20477;-67
2022/08/01 08:20:40;;;;;;;58.50;2.83;;;;;;;;;;5091634;28;20550;-67
2022/08/01 08:24:19;;;;;;;58.47;2.50;;;;;;;;;;5091814;28;20452;-67
2022/08/01 08:25:55;;;;;;;58.30;2.70;;;;;;;;;;5091361;28;20879;-67
2022/08/01 08:28:23;;;;;;;58.00;2.53;;;;;;;;;;5091455;28;20827;-67
2022/08/01 08:30:50;;;;;;;57.87;2.50;;;;;;;;;;5091214;28;20554;-67
2022/08/01 08:33:17;;;;;;;58.37;2.63;;;;;;;;;;5091728;28;20529;-67
2022/08/01 08:35:44;;;;;;;57.87;2.37;;;;;;;;;;5091862;28;20433;-67
2022/08/01 08:38:11;;;;;;;58.57;2.83;;;;;;;;;;5091350;28;20434;-67
2022/08/01 08:40:38;;;;;;;58.60;2.70;;;;;;;;;;5091183;28;20470;-67
2022/08/01 08:43:07;;;;;;;58.07;2.60;;;;;;;;;;5091379;28;20445;-67
2022/08/01 08:45:34;;;;;;;58.27;2.77;;;;;;;;;;5091696;28;20439;-67
2022/08/01 08:48:02;;;;;;;58.27;2.77;;;;;;;;;;5091948;28;20438;-67
2022/08/01 08:50:30;;;;;;;58.10;2.50;;;;;;;;;;5094660;28;20561;-67
2022/08/01 08:52:57;;;;;;;58.50;2.87;;;;;;;;;;5095125;28;20486;-67
2022/08/01 08:55:25;;;;;;;58.40;2.50;;;;;;;;;;5095000;28;20569;-67
2022/08/01 08:57:53;;;;;;;57.90;2.40;;;;;;;;;;5094916;28;20450;-67
2022/08/01 09:00:22;;;;;;;57.63;2.33;;;;;;;;;;5094819;28;20470;-67
2022/08/01 09:02:49;;;;;;;58.00;2.40;;;;;;;;;;5095069;28;20446;-67
2022/08/01 09:05:25;;;;;;;57.87;2.60;;;;;;;;;;5094976;28;20445;-67
2022/08/01 09:07:52;;;;;;;58.17;2.40;;;;;;;;;;5094789;28;20499;-67
2022/08/01 09:10:19;;;;;;;60.57;2.80;;;;;;;;;;5094306;28;20498;-67
2022/08/01 09:13:06;;;;;;;59.03;2.30;;;;;;;;;;5094987;28;20542;-67
2022/08/01 09:15:41;;;;;;;58.57;2.50;;;;;;;;;;5094712;28;20489;-67
2022/08/01 09:18:09;;;;;;;58.07;2.43;;;;;;;;;;5094637;28;20445;-67
2022/08/01 09:20:36;;;;;;;57.97;2.60;;;;;;;;;;5094083;28;20467;-67
2022/08/01 09:23:03;;;;;;;58.10;2.40;;;;;;;;;;5094798;28;20730;-67
2022/08/01 09:25:33;;;;;;;57.97;2.40;;;;;;;;;;5094654;28;20854;-67
2022/08/01 09:28:05;;;;;;;57.77;2.30;;;;;;;;;;5094623;28;20443;-67
2022/08/01 09:30:38;;;;;;;58.03;2.40;;;;;;;;;;5094126;28;20855;-67
2022/08/01 09:33:06;;;;;;;58.30;2.90;;;;;;;;;;5094258;28;20446;-67
2022/08/01 09:35:36;;;;;;;57.83;2.20;;;;;;;;;;5094368;28;20482;-67
2022/08/01 09:38:16;;;;;;;58.10;2.33;;;;;;;;;;5094374;28;20549;-67
2022/08/01 09:40:47;;;;;;;58.60;3.10;;;;;;;;;;5093993;28;20798;-67
2022/08/01 09:43:14;;;;;;;58.07;2.60;;;;;;;;;;5094123;28;20529;-67
2022/08/01 09:45:42;;;;;;;58.60;2.70;;;;;;;;;;5093985;28;20446;-67
2022/08/01 09:48:12;;;;;;;59.17;3.23;;;;;;;;;;5093962;28;20539;-67
2022/08/01 09:50:42;;;;;;;57.97;2.90;;;;;;;;;;5093588;28;20481;-67
2022/08/01 09:53:10;;;;;;;58.80;2.83;;;;;;;;;;5094084;28;20446;-68
2022/08/01 09:55:37;;;;;;;58.87;2.93;;;;;;;;;;5093849;28;20493;-67
2022/08/01 09:58:05;;;;;;;58.80;3.10;;;;;;;;;;5093714;28;20443;-67
2022/08/01 10:00:32;;;;;;;58.07;2.60;;;;;;;;;;5093602;28;20609;-67
2022/08/01 10:02:59;;;;;;;58.10;2.60;;;;;;;;;;5094011;28;20446;-67
2022/08/01 10:05:35;;;;;;;58.70;2.80;;;;;;;;;;5093804;28;20460;-67
2022/08/01 10:08:04;;;;;;;58.47;3.03;;;;;;;;;;5093638;28;20507;-67
2022/08/01 10:10:32;;;;;;;60.30;3.20;;;;;;;;;;5093181;28;20512;-67
2022/08/01 10:13:00;;;;;;;58.60;2.87;;;;;;;;;;5093724;28;20453;-67
2022/08/01 10:15:27;;;;;;;58.50;2.53;;;;;;;;;;5093641;28;20486;-68
2022/08/01 10:17:55;;;;;;;58.30;3.20;;;;;;;;;;5093554;28;20451;-67
2022/08/01 10:20:24;;;;;;;58.00;2.70;;;;;;;;;;5093357;28;20966;-68
2022/08/01 10:22:53;;;;;;;58.30;2.97;;;;;;;;;;5093376;28;20454;-68
2022/08/01 10:25:21;;;;;;;58.43;3.00;;;;;;;;;;5093293;28;20443;-67
2022/08/01 10:27:50;;;;;;;58.37;3.27;;;;;;;;;;5093467;28;20469;-68
2022/08/01 10:30:17;;;;;;;57.87;2.53;;;;;;;;;;5092764;28;20506;-68
2022/08/01 10:32:47;;;;;;;59.40;2.67;;;;;;;;;;5093153;28;20474;-68
2022/08/01 10:35:17;;;;;;;58.10;2.57;;;;;;;;;;5093038;28;20480;-68
2022/08/01 10:37:45;;;;;;;57.43;2.83;;;;;;;;;;5092950;28;20450;-68
2022/08/01 10:40:14;;;;;;;57.33;2.40;;;;;;;;;;5092857;28;20828;-68
2022/08/01 10:42:42;;;;;;;57.17;2.40;;;;;;;;;;5092972;28;20482;-68
2022/08/01 10:45:10;;;;;;;57.30;2.33;;;;;;;;;;5093023;28;20529;-65
2022/08/01 10:47:40;;;;;;;56.87;2.07;;;;;;;;;;5092903;28;20537;-68
2022/08/01 10:50:13;;;;;;;57.30;2.73;;;;;;;;;;5092245;28;20564;-68
2022/08/01 10:52:40;;;;;;;57.40;2.90;;;;;;;;;;5093080;28;20452;-69
2022/08/01 10:55:09;;;;;;;57.13;2.43;;;;;;;;;;5092894;28;20585;-69
2022/08/01 10:57:46;;;;;;;56.87;2.13;;;;;;;;;;5092860;28;20478;-69
2022/08/01 11:00:18;;;;;;;57.10;2.40;;;;;;;;;;5092288;28;20470;-68
2022/08/01 11:03:00;;;;;;;56.87;2.60;;;;;;;;;;5092603;28;20816;-69
2022/08/01 11:05:28;;;;;;;57.20;2.20;;;;;;;;;;5092738;28;20446;-68
2022/08/01 11:07:55;;;;;;;57.17;2.23;;;;;;;;;;5092731;28;20527;-66
2022/08/01 11:10:26;;;;;;;57.00;2.00;;;;;;;;;;5092248;28;20469;-68
2022/08/01 11:12:54;;;;;;;57.23;2.57;;;;;;;;;;5092163;28;20888;-68
2022/08/01 11:15:26;;;;;;;56.83;2.50;;;;;;;;;;5092257;28;20861;-65
2022/08/01 11:17:53;;;;;;;57.30;2.57;;;;;;;;;;5092565;28;20550;-69
2022/08/01 11:20:22;;;;;;;57.50;2.73;;;;;;;;;;5091976;28;20978;-68
2022/08/01 11:23:10;;;;;;;57.20;2.20;;;;;;;;;;5092349;28;20446;-69
2022/08/01 11:25:53;;;;;;;57.27;2.43;;;;;;;;;;5092177;28;20439;-68
2022/08/01 11:28:23;;;;;;;57.23;2.60;;;;;;;;;;5091973;28;21050;-68
2022/08/01 11:30:51;;;;;;;57.70;2.77;;;;;;;;;;5091967;28;20470;-68
2022/08/01 11:33:19;;;;;;;57.40;2.40;;;;;;;;;;5092215;28;20447;-68
2022/08/01 11:36:01;;;;;;;58.57;2.30;;;;;;;;;;5092168;28;20944;-68
2022/08/01 11:38:29;;;;;;;57.20;2.30;;;;;;;;;;5091761;28;20533;-68
2022/08/01 11:41:11;;;;;;;57.17;2.20;;;;;;;;;;5092121;28;20678;-66
2022/08/01 11:43:55;;;;;;;57.20;2.53;;;;;;;;;;5092109;28;20963;-66
2022/08/01 11:46:37;;;;;;;57.13;2.67;;;;;;;;;;5091906;28;20440;-66
2022/08/01 11:49:23;;;;;;;57.20;2.23;;;;;;;;;;5091418;28;20938;-68
2022/08/01 11:51:50;;;;;;;57.10;2.20;;;;;;;;;;5092062;28;20466;-68
2022/08/01 11:54:18;;;;;;;56.97;2.00;;;;;;;;;;5092004;28;20454;-68
2022/08/01 11:56:45;;;;;;;56.77;2.00;;;;;;;;;;5091698;28;20486;-68
2022/08/01 11:59:13;;;;;;;57.60;2.40;;;;;;;;;;5091758;28;20453;-68
2022/08/01 12:01:42;;;;;;;56.90;2.27;;;;;;;;;;5091946;28;20539;-66
2022/08/01 12:04:09;;;;;;;56.87;2.20;;;;;;;;;;5091749;28;20453;-66
2022/08/01 12:06:37;;;;;;;57.10;2.53;;;;;;;;;;5091875;28;20445;-67
2022/08/01 12:09:16;;;;;;;56.97;2.00;;;;;;;;;;5091502;28;20478;-69
2022/08/01 12:11:43;;;;;;;57.00;2.40;;;;;;;;;;5091934;28;20477;-69
2022/08/01 12:14:11;;;;;;;56.97;2.40;;;;;;;;;;5091949;28;20821;-68
2022/08/01 12:16:39;;;;;;;57.17;2.40;;;;;;;;;;5091663;28;20486;-67
2022/08/01 12:19:06;;;;;;;57.00;2.30;;;;;;;;;;5091378;28;20446;-65
2022/08/01 12:21:33;;;;;;;56.80;2.03;;;;;;;;;;5091681;28;20546;-66
2022/08/01 12:24:04;;;;;;;57.33;2.27;;;;;;;;;;5093587;28;20442;-68
2022/08/01 12:26:41;;;;;;;57.10;2.27;;;;;;;;;;5095847;28;20444;-68
2022/08/01 12:29:08;;;;;;;57.27;2.23;;;;;;;;;;5095334;28;20448;-68
2022/08/01 12:31:35;;;;;;;57.57;2.60;;;;;;;;;;5095489;28;20466;-68
2022/08/01 12:34:20;;;;;;;56.77;2.10;;;;;;;;;;5095535;28;20916;-66
2022/08/01 12:36:49;;;;;;;57.17;2.60;;;;;;;;;;5085148;28;20501;-66
2022/08/01 12:39:17;;;;;;;56.73;2.37;;;;;;;;;;5095497;28;20454;-66
2022/08/01 12:41:44;;;;;;;56.50;1.80;;;;;;;;;;5095258;28;20920;-69
2022/08/01 12:44:15;;;;;;;57.00;2.37;;;;;;;;;;5095416;28;20449;-69
2022/08/01 12:46:43;;;;;;;56.70;2.13;;;;;;;;;;5095319;28;20644;-69
2022/08/01 12:49:10;;;;;;;57.00;2.30;;;;;;;;;;5094667;28;20434;-69
2022/08/01 12:51:37;;;;;;;56.93;2.30;;;;;;;;;;5095254;28;20476;-66
2022/08/01 12:54:09;;;;;;;57.00;2.40;;;;;;;;;;5095250;28;20446;-66
2022/08/01 12:56:36;;;;;;;58.90;2.33;;;;;;;;;;5094910;28;20482;-66
2022/08/01 12:59:20;;;;;;;56.70;2.20;;;;;;;;;;5094596;28;20453;-67
2022/08/01 13:01:47;;;;;;;56.77;2.40;;;;;;;;;;5094969;28;20470;-66
2022/08/01 13:04:14;;;;;;;57.07;2.30;;;;;;;;;;5095112;28;20845;-66
2022/08/01 13:06:42;;;;;;;56.60;2.10;;;;;;;;;;5094940;28;20453;-69
2022/08/01 13:09:11;;;;;;;57.40;2.07;;;;;;;;;;5094591;28;20438;-68
2022/08/01 13:11:38;;;;;;;57.03;2.13;;;;;;;;;;5094670;28;20982;-69
2022/08/01 13:14:06;;;;;;;57.23;2.53;;;;;;;;;;5094577;28;20829;-68
2022/08/01 13:16:33;;;;;;;56.67;1.93;;;;;;;;;;5094527;28;20480;-68
2022/08/01 13:19:00;;;;;;;57.20;2.40;;;;;;;;;;5094422;28;20442;-69
2022/08/01 13:21:28;;;;;;;57.70;2.70;;;;;;;;;;5094643;28;20471;-66
2022/08/01 13:24:02;;;;;;;56.90;2.23;;;;;;;;;;5094550;28;20826;-68
2022/08/01 13:26:41;;;;;;;56.77;1.97;;;;;;;;;;5094304;28;20438;-68
2022/08/01 13:29:09;;;;;;;57.40;2.40;;;;;;;;;;5094259;28;20453;-66
2022/08/01 13:31:37;;;;;;;57.27;2.20;;;;;;;;;;5094230;28;20477;-66
2022/08/01 13:34:04;;;;;;;57.30;2.20;;;;;;;;;;5093853;28;20442;-66
2022/08/01 13:36:32;;;;;;;57.60;2.20;;;;;;;;;;5094256;28;20561;-68
2022/08/01 13:41:45;;;;;;;57.37;2.10;;;;;;;;;;5094415;28;20446;-68
2022/08/01 13:44:13;;;;;;;57.60;2.30;;;;;;;;;;5094106;28;20950;-69
2022/08/01 13:46:40;;;;;;;57.37;2.40;;;;;;;;;;5094512;28;20538;-69
2022/08/01 13:49:09;;;;;;;57.20;2.47;;;;;;;;;;5093669;28;20473;-69
2022/08/01 13:51:36;;;;;;;56.83;1.93;;;;;;;;;;5093877;28;20546;-65
2022/08/01 13:54:03;;;;;;;56.73;2.20;;;;;;;;;;5094314;28;20536;-66
2022/08/01 13:56:30;;;;;;;56.83;1.97;;;;;;;;;;5094007;28;20486;-65
2022/08/01 13:58:59;;;;;;;57.47;2.20;;;;;;;;;;5093687;28;20827;-68
2022/08/01 14:01:26;;;;;;;56.80;2.03;;;;;;;;;;5093778;28;20466;-68
2022/08/01 14:03:53;;;;;;;56.97;2.37;;;;;;;;;;5093731;28;20450;-68
2022/08/01 14:06:22;;;;;;;57.37;2.40;;;;;;;;;;5093756;28;20934;-68
2022/08/01 14:08:49;;;;;;;57.40;2.10;;;;;;;;;;5093556;28;20474;-65
2022/08/01 14:11:16;;;;;;;58.00;2.33;;;;;;;;;;5093542;28;20474;-68
2022/08/01 14:13:44;;;;;;;57.67;2.20;;;;;;;;;;5093598;28;20451;-68
2022/08/01 14:16:12;;;;;;;57.80;2.30;;;;;;;;;;5093447;28;20489;-68
2022/08/01 14:18:40;;;;;;;57.33;2.20;;;;;;;;;;5093028;28;20454;-68
2022/08/01 14:21:07;;;;;;;57.70;2.13;;;;;;;;;;5093347;28;20470;-68
2022/08/01 14:23:34;;;;;;;57.30;2.10;;;;;;;;;;5093361;28;20499;-68
2022/08/01 14:26:01;;;;;;;57.20;2.07;;;;;;;;;;5093809;28;20522;-68
2022/08/01 14:28:29;;;;;;;57.27;2.10;;;;;;;;;;5093260;28;20451;-68
2022/08/01 14:30:57;;;;;;;58.00;2.87;;;;;;;;;;5092956;28;20483;-68
2022/08/01 14:33:26;;;;;;;57.37;2.10;;;;;;;;;;5093150;28;20449;-68
2022/08/01 14:35:53;;;;;;;58.07;2.33;;;;;;;;;;5093282;28;20482;-68
2022/08/01 14:38:20;;;;;;;57.40;2.20;;;;;;;;;;5092887;28;20938;-67
2022/08/01 14:40:50;;;;;;;58.07;2.30;;;;;;;;;;5092727;28;20490;-67
2022/08/01 14:43:18;;;;;;;57.67;2.37;;;;;;;;;;5092919;28;20541;-67
2022/08/01 14:45:45;;;;;;;58.03;2.63;;;;;;;;;;5092406;28;21021;-68